createdAt,value
2022-09-23T00:01:32.906Z,99760.97
2022-09-23T00:04:20.604Z,99764.06
2022-09-23T00:07:07.817Z,99761.66
2022-09-23T00:10:00.081Z,99757.50
2022-09-23T00:12:47.576Z,99754.88
2022-09-23T00:15:40.533Z,99765.78
2022-09-23T00:18:29.633Z,99751.34
2022-09-23T00:21:16.921Z,99757.59
2022-09-23T00:24:04.786Z,99757.28
2022-09-23T00:26:52.163Z,99755.16
2022-09-23T00:29:39.727Z,99751.16
2022-09-23T00:32:27.623Z,99745.16
2022-09-23T00:35:16.484Z,99747.66
2022-09-23T00:38:03.567Z,99742.91
2022-09-23T00:40:50.974Z,99736.09
2022-09-23T00:43:41.141Z,99739.75
2022-09-23T00:46:35.052Z,99732.16
2022-09-23T00:49:29.348Z,99745.44
2022-09-23T00:52:21.777Z,99743.03
2022-09-23T00:55:15.115Z,99737.25
2022-09-23T00:58:05.957Z,99736.16
2022-09-23T01:00:53.908Z,99741.59
2022-09-23T01:03:43.560Z,99733.09
2022-09-23T01:06:31.147Z,99740.03
2022-09-23T01:09:20.870Z,99726.69
2022-09-23T01:12:24.885Z,99734.50
2022-09-23T01:15:19.056Z,99732.34
2022-09-23T01:18:17.355Z,99728.13
2022-09-23T01:21:16.733Z,99726.34
2022-09-23T01:24:47.947Z,99714.56
2022-09-23T01:28:05.465Z,99706.72
2022-09-23T01:31:03.180Z,99711.94
2022-09-23T01:33:58.065Z,99712.19
2022-09-23T01:36:52.412Z,99706.34
2022-09-23T01:39:46.317Z,99710.00
2022-09-23T01:42:40.705Z,99708.66
2022-09-23T01:45:38.229Z,99705.69
2022-09-23T01:48:34.200Z,99700.69
2022-09-23T01:51:27.065Z,99699.13
2022-09-23T01:54:21.207Z,99694.59
2022-09-23T01:57:15.919Z,99694.06
2022-09-23T02:00:09.887Z,99696.31
2022-09-23T02:03:07.283Z,99701.44
2022-09-23T02:06:01.681Z,99695.63
2022-09-23T02:08:56.530Z,99693.25
2022-09-23T02:11:48.237Z,99693.25
2022-09-23T02:14:41.695Z,99685.44
2022-09-23T02:17:35.980Z,99695.06
2022-09-23T02:20:30.448Z,99688.28
2022-09-23T02:23:26.926Z,99690.88
2022-09-23T02:26:22.592Z,99685.91
2022-09-23T02:29:21.722Z,99679.13
2022-09-23T02:32:16.780Z,99679.88
2022-09-23T02:35:16.968Z,99678.88
2022-09-23T02:38:18.648Z,99672.56
2022-09-23T02:41:11.775Z,99674.22
2022-09-23T02:44:04.859Z,99672.34
2022-09-23T02:46:53.286Z,99675.94
2022-09-23T02:49:41.886Z,99673.09
2022-09-23T02:52:29.212Z,99667.91
2022-09-23T02:55:22.191Z,99673.91
2022-09-23T02:58:14.037Z,99660.00
2022-09-23T03:01:11.095Z,99659.88
2022-09-23T03:04:13.183Z,99656.47
2022-09-23T03:07:07.187Z,99655.34
2022-09-23T03:10:01.756Z,99659.75
2022-09-23T03:13:01.325Z,99653.75
2022-09-23T03:15:57.346Z,99646.97
2022-09-23T03:18:51.331Z,99650.59
2022-09-23T03:21:45.208Z,99648.22
2022-09-23T03:24:34.955Z,99637.44
2022-09-23T03:27:27.036Z,99646.28
2022-09-23T03:30:15.368Z,99642.66
2022-09-23T03:33:08.161Z,99644.72
2022-09-23T03:36:18.601Z,99638.72
2022-09-23T03:39:11.639Z,99635.28
2022-09-23T03:42:04.904Z,99635.28
2022-09-23T03:44:57.139Z,99632.69
2022-09-23T03:47:45.111Z,99636.09
2022-09-23T03:50:35.771Z,99629.53
2022-09-23T03:53:23.017Z,99637.13
2022-09-23T03:56:11.694Z,99627.94
2022-09-23T03:58:59.301Z,99635.97
2022-09-23T04:01:46.912Z,99630.00
2022-09-23T04:04:35.056Z,99628.88
2022-09-23T04:07:23.686Z,99617.44
2022-09-23T04:10:11.797Z,99618.22
2022-09-23T04:12:59.242Z,99622.88
2022-09-23T04:15:46.451Z,99625.69
2022-09-23T04:18:34.034Z,99620.47
2022-09-23T04:21:21.565Z,99619.34
2022-09-23T04:24:11.317Z,99613.34
2022-09-23T04:26:58.925Z,99616.19
2022-09-23T04:29:46.480Z,99615.06
2022-09-23T04:32:33.780Z,99620.25
2022-09-23T04:35:21.199Z,99615.84
2022-09-23T04:38:09.949Z,99618.00
2022-09-23T04:40:58.879Z,99619.22
2022-09-23T04:43:46.964Z,99622.06
2022-09-23T04:46:34.685Z,99626.28
2022-09-23T04:49:22.210Z,99616.84
2022-09-23T04:52:09.592Z,99630.66
2022-09-23T04:54:57.184Z,99634.31
2022-09-23T04:57:46.142Z,99638.47
2022-09-23T05:00:33.683Z,99641.66
2022-09-23T05:03:21.065Z,99636.22
2022-09-23T05:06:09.940Z,99640.19
2022-09-23T05:08:59.514Z,99642.78
2022-09-23T05:11:47.505Z,99636.22
2022-09-23T05:14:36.169Z,99644.25
2022-09-23T05:17:24.031Z,99639.28
2022-09-23T05:20:13.618Z,99642.13
2022-09-23T05:23:00.939Z,99646.28
2022-09-23T05:25:48.421Z,99649.91
2022-09-23T05:28:39.312Z,99634.75
2022-09-23T05:31:30.524Z,99639.16
2022-09-23T05:34:18.730Z,99643.13
2022-09-23T05:37:06.496Z,99634.75
2022-09-23T05:39:53.956Z,99635.56
2022-09-23T05:42:41.701Z,99643.13
2022-09-23T05:45:29.725Z,99637.94
2022-09-23T05:48:18.849Z,99633.28
2022-09-23T05:51:12.874Z,99638.03
2022-09-23T05:54:05.263Z,99637.00
2022-09-23T05:56:52.772Z,99642.78
2022-09-23T05:59:40.124Z,99640.50
2022-09-23T06:02:27.672Z,99643.69
2022-09-23T06:04:57.967Z,99643.78
2022-09-23T06:07:27.276Z,99643.91
2022-09-23T06:09:56.219Z,99652.84
2022-09-23T06:12:25.365Z,99651.38
2022-09-23T06:14:54.371Z,99650.16
2022-09-23T06:17:23.411Z,99648.66
2022-09-23T06:19:52.334Z,99648.00
2022-09-23T06:22:25.473Z,99640.03
2022-09-23T06:24:54.417Z,99636.97
2022-09-23T06:27:23.510Z,99636.06
2022-09-23T06:29:52.598Z,99629.91
2022-09-23T06:32:21.703Z,99635.25
2022-09-23T06:34:52.181Z,99636.38
2022-09-23T06:37:23.360Z,99627.06
2022-09-23T06:39:54.810Z,99622.97
2022-09-23T06:42:23.763Z,99622.03
2022-09-23T06:44:52.731Z,99617.72
2022-09-23T06:47:21.660Z,99624.41
2022-09-23T06:49:51.605Z,99626.66
2022-09-23T06:52:22.179Z,99617.66
2022-09-23T06:54:51.139Z,99617.50
2022-09-23T06:57:20.316Z,99619.19
2022-09-23T06:59:49.594Z,99616.91
2022-09-23T07:02:18.588Z,99620.88
2022-09-23T07:04:47.637Z,99618.38
2022-09-23T07:07:18.287Z,99624.69
2022-09-23T07:09:48.829Z,99625.78
2022-09-23T07:12:19.229Z,99611.25
2022-09-23T07:14:48.196Z,99614.19
2022-09-23T07:17:17.145Z,99618.66
2022-09-23T07:19:46.169Z,99612.97
2022-09-23T07:22:15.073Z,99622.50
2022-09-23T07:24:44.076Z,99630.94
2022-09-23T07:27:16.309Z,99625.81
2022-09-23T07:29:48.766Z,99628.50
2022-09-23T07:32:18.092Z,99624.94
2022-09-23T07:34:48.185Z,99624.56
2022-09-23T07:37:18.652Z,99632.03
2022-09-23T07:39:47.703Z,99629.00
2022-09-23T07:42:18.238Z,99627.56
2022-09-23T07:44:47.435Z,99627.44
2022-09-23T07:47:17.697Z,99623.16
2022-09-23T07:49:46.858Z,99617.03
2022-09-23T07:52:15.946Z,99618.75
2022-09-23T07:54:47.741Z,99616.81
2022-09-23T07:57:18.104Z,99613.31
2022-09-23T07:59:47.039Z,99614.50
2022-09-23T08:02:16.425Z,99618.84
2022-09-23T08:04:46.334Z,99611.09
2022-09-23T08:07:15.495Z,99618.00
2022-09-23T08:09:45.739Z,99616.81
2022-09-23T08:12:19.039Z,99619.03
2022-09-23T08:14:48.007Z,99622.81
2022-09-23T08:17:17.020Z,99618.00
2022-09-23T08:19:45.981Z,99613.91
2022-09-23T08:22:16.105Z,99613.44
2022-09-23T08:24:45.141Z,99620.94
2022-09-23T08:27:14.475Z,99622.56
2022-09-23T08:29:45.291Z,99626.31
2022-09-23T08:32:14.587Z,99630.59
2022-09-23T08:34:44.015Z,99614.91
2022-09-23T08:37:13.007Z,99622.56
2022-09-23T08:39:41.988Z,99618.66
2022-09-23T08:42:18.949Z,99619.25
2022-09-23T08:44:52.888Z,99621.38
2022-09-23T08:47:27.413Z,99612.22
2022-09-23T08:50:04.714Z,99617.00
2022-09-23T08:52:41.188Z,99615.47
2022-09-23T08:55:13.964Z,99612.59
2022-09-23T08:58:23.482Z,99622.03
2022-09-23T09:00:47.777Z,99622.31
2022-09-23T09:03:24.620Z,99620.47
2022-09-23T09:05:55.131Z,99620.22
2022-09-23T09:08:29.859Z,99610.97
2022-09-23T09:11:00.093Z,99608.84
2022-09-23T09:13:33.707Z,99604.03
2022-09-23T09:16:59.048Z,99597.94
2022-09-23T09:19:53.475Z,99596.59
2022-09-23T09:22:40.937Z,99593.88
2022-09-23T09:25:24.734Z,99598.22
2022-09-23T09:27:55.870Z,99593.66
2022-09-23T09:30:25.673Z,99594.94
2022-09-23T09:33:03.018Z,99594.03
2022-09-23T09:35:42.044Z,99595.53
2022-09-23T09:38:11.017Z,99594.66
2022-09-23T09:40:47.796Z,99592.75
2022-09-23T09:43:22.702Z,99587.34
2022-09-23T09:46:10.702Z,99589.63
2022-09-23T09:48:53.787Z,99585.06
2022-09-23T09:51:24.739Z,99580.47
2022-09-23T09:53:53.895Z,99576.38
2022-09-23T09:56:31.865Z,99573.63
2022-09-23T09:59:08.049Z,99573.50
2022-09-23T10:01:37.339Z,99577.06
2022-09-23T10:04:22.404Z,99565.66
2022-09-23T10:07:07.424Z,99573.28
2022-09-23T10:09:38.852Z,99572.94
2022-09-23T10:12:18.453Z,99562.78
2022-09-23T10:14:50.612Z,99558.50
2022-09-23T10:17:23.333Z,99556.59
2022-09-23T10:20:00.909Z,99557.81
2022-09-23T10:22:34.873Z,99548.03
2022-09-23T10:25:10.060Z,99558.59
2022-09-23T10:27:39.689Z,99555.44
2022-09-23T10:30:23.522Z,99552.81
2022-09-23T10:32:54.896Z,99546.97
2022-09-23T10:35:26.629Z,99547.47
2022-09-23T10:37:57.032Z,99550.41
2022-09-23T10:40:49.194Z,99537.66
2022-09-23T10:44:12.612Z,99540.09
2022-09-23T10:46:49.278Z,99535.13
2022-09-23T10:49:58.842Z,99539.03
2022-09-23T10:52:46.435Z,99535.31
2022-09-23T10:55:41.406Z,99530.13
2022-09-23T10:58:44.173Z,99529.25
2022-09-23T11:01:27.662Z,99534.53
2022-09-23T11:04:14.556Z,99524.75
2022-09-23T11:07:07.347Z,99517.53
2022-09-23T11:09:53.609Z,99521.66
2022-09-23T11:12:39.925Z,99520.28
2022-09-23T11:15:32.801Z,99512.47
2022-09-23T11:18:47.857Z,99518.31
2022-09-23T11:21:44.208Z,99513.31
2022-09-23T11:24:52.130Z,99508.88
2022-09-23T11:27:39.146Z,99506.81
2022-09-23T11:30:14.134Z,99503.41
2022-09-23T11:33:14.167Z,99503.19
2022-09-23T11:35:49.990Z,99494.22
2022-09-23T11:38:26.152Z,99503.59
2022-09-23T11:41:01.012Z,99500.31
2022-09-23T11:43:36.805Z,99486.72
2022-09-23T11:46:16.637Z,99492.72
2022-09-23T11:48:51.762Z,99495.31
2022-09-23T11:51:27.485Z,99487.31
2022-09-23T11:54:02.140Z,99483.97
2022-09-23T11:56:37.569Z,99478.53
2022-09-23T11:59:17.471Z,99487.19
2022-09-23T12:01:49.772Z,99480.72
2022-09-23T12:04:27.204Z,99478.19
2022-09-23T12:07:05.915Z,99471.72
2022-09-23T12:09:57.829Z,99470.56
2022-09-23T12:12:37.129Z,99470.16
2022-09-23T12:15:16.443Z,99466.16
2022-09-23T12:18:12.648Z,99465.66
2022-09-23T12:20:59.542Z,99459.56
2022-09-23T12:23:52.812Z,99462.50
2022-09-23T12:26:25.151Z,99463.59
2022-09-23T12:29:00.090Z,99460.78
2022-09-23T12:31:33.037Z,99452.13
2022-09-23T12:34:21.503Z,99464.66
2022-09-23T12:36:50.719Z,99453.09
2022-09-23T12:39:28.349Z,99451.03
2022-09-23T12:42:00.999Z,99452.91
2022-09-23T12:44:42.023Z,99439.47
2022-09-23T12:47:48.927Z,99446.22
2022-09-23T12:50:54.262Z,99453.84
2022-09-23T12:54:14.152Z,99448.75
2022-09-23T12:57:07.532Z,99444.28
2022-09-23T13:00:00.981Z,99438.78
2022-09-23T13:02:37.478Z,99446.13
2022-09-23T13:05:44.484Z,99436.88
2022-09-23T13:08:18.479Z,99431.06
2022-09-23T13:10:50.180Z,99433.44
2022-09-23T13:13:26.940Z,99427.06
2022-09-23T13:15:56.596Z,99419.91
2022-09-23T13:18:55.572Z,99420.72
2022-09-23T13:22:07.981Z,99408.56
2022-09-23T13:24:42.204Z,99411.72
2022-09-23T13:27:27.551Z,99411.44
2022-09-23T13:30:07.755Z,99405.06
2022-09-23T13:32:46.479Z,99411.16
2022-09-23T13:35:23.626Z,99413.28
2022-09-23T13:37:54.454Z,99405.66
2022-09-23T13:40:27.138Z,99403.25
2022-09-23T13:43:00.308Z,99399.06
2022-09-23T13:45:30.977Z,99389.56
2022-09-23T13:48:05.999Z,99395.91
2022-09-23T13:50:40.805Z,99389.06
2022-09-23T13:53:14.312Z,99389.94
2022-09-23T13:55:43.250Z,99386.03
2022-09-23T13:58:20.698Z,99386.31
2022-09-23T14:00:51.104Z,99383.50
2022-09-23T14:03:36.087Z,99374.53
2022-09-23T14:06:11.069Z,99373.56
2022-09-23T14:08:46.967Z,99378.16
2022-09-23T14:11:17.639Z,99369.53
2022-09-23T14:13:48.851Z,99372.75
2022-09-23T14:16:19.668Z,99369.69
2022-09-23T14:18:52.354Z,99366.56
2022-09-23T14:21:35.301Z,99366.84
2022-09-23T14:24:17.638Z,99373.19
2022-09-23T14:26:49.703Z,99369.47
2022-09-23T14:29:21.909Z,99371.06
2022-09-23T14:31:57.753Z,99366.56
2022-09-23T14:34:51.909Z,99368.13
2022-09-23T14:37:44.838Z,99365.69
2022-09-23T14:40:19.219Z,99353.47
2022-09-23T14:42:52.474Z,99349.47
2022-09-23T14:45:25.313Z,99345.75
2022-09-23T14:48:00.161Z,99345.19
2022-09-23T14:50:39.711Z,99353.09
2022-09-23T14:53:38.467Z,99347.59
2022-09-23T14:56:19.364Z,99339.97
2022-09-23T14:58:54.409Z,99334.97
2022-09-23T15:01:37.396Z,99333.41
2022-09-23T15:04:32.361Z,99335.88
2022-09-23T15:07:07.675Z,99332.91
2022-09-23T15:09:40.676Z,99336.63
2022-09-23T15:12:16.225Z,99330.09
2022-09-23T15:14:50.504Z,99334.56
2022-09-23T15:17:32.559Z,99322.72
2022-09-23T15:20:05.306Z,99324.59
2022-09-23T15:22:44.924Z,99321.19
2022-09-23T15:25:20.532Z,99320.38
2022-09-23T15:28:04.255Z,99320.19
2022-09-23T15:30:35.737Z,99323.88
2022-09-23T15:33:05.000Z,99327.59
2022-09-23T15:35:34.531Z,99321.06
2022-09-23T15:38:03.765Z,99330.34
2022-09-23T15:40:35.421Z,99330.63
2022-09-23T15:43:20.663Z,99336.97
2022-09-23T15:45:53.215Z,99331.22
2022-09-23T15:48:26.440Z,99336.75
2022-09-23T15:50:56.107Z,99337.78
2022-09-23T15:53:29.943Z,99344.16
2022-09-23T15:55:58.974Z,99339.16
2022-09-23T15:58:29.361Z,99341.63
2022-09-23T16:00:59.061Z,99335.81
2022-09-23T16:03:29.349Z,99332.38
2022-09-23T16:06:01.264Z,99327.72
2022-09-23T16:08:32.842Z,99328.28
2022-09-23T16:11:02.278Z,99323.28
2022-09-23T16:13:32.602Z,99323.34
2022-09-23T16:16:01.981Z,99320.25
2022-09-23T16:18:31.284Z,99325.00
2022-09-23T16:21:00.282Z,99323.22
2022-09-23T16:23:38.820Z,99327.22
2022-09-23T16:26:15.459Z,99319.13
2022-09-23T16:28:47.332Z,99310.19
2022-09-23T16:31:17.735Z,99311.53
2022-09-23T16:33:48.043Z,99299.19
2022-09-23T16:36:23.487Z,99321.69
2022-09-23T16:38:55.485Z,99314.31
2022-09-23T16:41:25.207Z,99306.97
2022-09-23T16:43:56.273Z,99308.34
2022-09-23T16:46:25.575Z,99308.13
2022-09-23T16:48:55.620Z,99314.75
2022-09-23T16:51:27.273Z,99316.41
2022-09-23T16:53:58.896Z,99317.22
2022-09-23T16:56:29.702Z,99314.09
2022-09-23T16:59:00.169Z,99308.59
2022-09-23T17:01:47.749Z,99311.78
2022-09-23T17:04:20.030Z,99311.88
2022-09-23T17:06:51.851Z,99307.16
2022-09-23T17:09:24.666Z,99313.00
2022-09-23T17:11:59.255Z,99315.41
2022-09-23T17:14:32.174Z,99311.78
2022-09-23T17:17:01.302Z,99314.97
2022-09-23T17:19:30.241Z,99311.34
2022-09-23T17:21:59.207Z,99306.63
2022-09-23T17:24:28.194Z,99307.19
2022-09-23T17:26:57.109Z,99309.34
2022-09-23T17:29:26.941Z,99314.38
2022-09-23T17:31:57.291Z,99317.84
2022-09-23T17:34:28.847Z,99322.13
2022-09-23T17:36:57.789Z,99319.56
2022-09-23T17:39:26.826Z,99324.88
2022-09-23T17:41:58.556Z,99312.25
2022-09-23T17:44:27.650Z,99321.25
2022-09-23T17:46:58.184Z,99321.53
2022-09-23T17:49:27.776Z,99319.47
2022-09-23T17:51:56.880Z,99321.31
2022-09-23T17:54:26.133Z,99322.66
2022-09-23T17:56:56.448Z,99322.41
2022-09-23T17:59:25.621Z,99315.66
2022-09-23T18:01:54.921Z,99318.03
2022-09-23T18:04:25.327Z,99312.56
2022-09-23T18:06:54.284Z,99301.00
2022-09-23T18:09:23.271Z,99292.88
2022-09-23T18:11:52.326Z,99306.59
2022-09-23T18:14:23.690Z,99310.59
2022-09-23T18:16:54.593Z,99321.13
2022-09-23T18:19:25.919Z,99309.31
2022-09-23T18:21:57.294Z,99309.06
2022-09-23T18:24:34.050Z,99310.69
2022-09-23T18:27:03.204Z,99308.06
2022-09-23T18:29:33.862Z,99302.88
2022-09-23T18:32:03.790Z,99310.03
2022-09-23T18:34:34.347Z,99307.16
2022-09-23T18:37:08.615Z,99315.56
2022-09-23T18:39:44.639Z,99314.56
2022-09-23T18:42:14.239Z,99308.28
2022-09-23T18:44:43.264Z,99309.34
2022-09-23T18:47:32.350Z,99305.41
2022-09-23T18:50:20.201Z,99316.78
2022-09-23T18:52:49.136Z,99318.06
2022-09-23T18:55:18.195Z,99309.69
2022-09-23T18:57:48.816Z,99304.19
2022-09-23T19:00:18.098Z,99310.78
2022-09-23T19:02:47.188Z,99303.97
2022-09-23T19:05:19.036Z,99304.25
2022-09-23T19:07:48.228Z,99304.50
2022-09-23T19:10:19.218Z,99302.69
2022-09-23T19:12:48.180Z,99303.50
2022-09-23T19:15:17.573Z,99303.28
2022-09-23T19:17:46.848Z,99300.69
2022-09-23T19:20:17.318Z,99307.53
2022-09-23T19:22:48.316Z,99308.63
2022-09-23T19:25:17.752Z,99306.53
2022-09-23T19:27:46.696Z,99308.63
2022-09-23T19:30:16.119Z,99307.59
2022-09-23T19:32:46.357Z,99309.72
2022-09-23T19:35:16.920Z,99302.13
2022-09-23T19:37:49.260Z,99303.44
2022-09-23T19:40:18.263Z,99295.59
2022-09-23T19:42:47.355Z,99302.91
2022-09-23T19:45:17.308Z,99296.09
2022-09-23T19:47:46.256Z,99286.13
2022-09-23T19:50:15.893Z,99288.22
2022-09-23T19:52:46.187Z,99290.91
2022-09-23T19:55:15.367Z,99297.22
2022-09-23T19:57:44.362Z,99292.22
2022-09-23T20:00:15.521Z,99293.00
2022-09-23T20:02:44.465Z,99293.56
2022-09-23T20:05:31.682Z,99297.00
2022-09-23T20:08:22.525Z,99295.69
2022-09-23T20:11:12.405Z,99303.06
2022-09-23T20:14:04.095Z,99293.34
2022-09-23T20:16:53.175Z,99290.19
2022-09-23T20:19:40.456Z,99298.34
2022-09-23T20:22:32.452Z,99299.41
2022-09-23T20:25:22.277Z,99293.63
2022-09-23T20:28:08.698Z,99293.41
2022-09-23T20:30:59.959Z,99293.13
2022-09-23T20:33:51.848Z,99299.47
2022-09-23T20:36:41.706Z,99290.00
2022-09-23T20:39:29.771Z,99280.84
2022-09-23T20:42:20.366Z,99271.13
2022-09-23T20:45:09.927Z,99269.34
2022-09-23T20:48:00.330Z,99263.03
2022-09-23T20:50:47.847Z,99262.81
2022-09-23T20:53:35.267Z,99248.66
2022-09-23T20:56:23.173Z,99256.00
2022-09-23T20:59:14.769Z,99262.31
2022-09-23T21:02:03.702Z,99253.91
2022-09-23T21:04:51.282Z,99256.53
2022-09-23T21:07:38.603Z,99252.56
2022-09-23T21:10:26.084Z,99252.03
2022-09-23T21:13:13.144Z,99247.06
2022-09-23T21:16:05.694Z,99260.47
2022-09-23T21:18:53.402Z,99260.75
2022-09-23T21:21:40.949Z,99262.03
2022-09-23T21:27:37.214Z,99237.69
2022-09-23T21:30:24.573Z,99255.53
2022-09-23T21:33:13.914Z,99255.53
2022-09-23T21:36:04.172Z,99269.72
2022-09-23T21:38:51.950Z,99273.91
2022-09-23T21:41:40.149Z,99261.84
2022-09-23T21:44:27.597Z,99268.41
2022-09-23T21:47:14.911Z,99267.63
2022-09-23T21:50:04.170Z,99265.78
2022-09-23T21:52:52.008Z,99260.31
2022-09-23T21:55:39.519Z,99267.09
2022-09-23T21:58:26.685Z,99273.66
2022-09-23T22:01:17.538Z,99274.72
2022-09-23T22:04:10.156Z,99271.84
2022-09-23T22:07:00.148Z,99270.78
2022-09-23T22:09:47.968Z,99277.38
2022-09-23T22:12:35.774Z,99273.44
2022-09-23T22:15:23.538Z,99276.31
2022-09-23T22:18:11.806Z,99279.72
2022-09-23T22:20:59.779Z,99276.59
2022-09-23T22:23:48.172Z,99274.22
2022-09-23T22:26:38.839Z,99278.16
2022-09-23T22:29:43.906Z,99282.59
2022-09-23T22:32:46.289Z,99277.63
2022-09-23T22:35:33.763Z,99280.78
2022-09-23T22:38:20.970Z,99275.78
2022-09-23T22:41:09.934Z,99270.81
2022-09-23T22:43:58.517Z,99280.75
2022-09-23T22:46:46.555Z,99270.25
2022-09-23T22:49:33.920Z,99270.25
2022-09-23T22:52:24.245Z,99273.91
2022-09-23T22:55:12.101Z,99272.88
2022-09-23T22:58:15.295Z,99259.25
2022-09-23T23:01:09.969Z,99262.66
2022-09-23T23:03:58.219Z,99253.50
2022-09-23T23:06:45.730Z,99254.00
2022-09-23T23:09:32.836Z,99260.28
2022-09-23T23:12:21.492Z,99255.03
2022-09-23T23:15:12.387Z,99241.41
2022-09-23T23:17:59.736Z,99238.78
2022-09-23T23:20:47.062Z,99233.28
2022-09-23T23:23:38.596Z,99230.16
2022-09-23T23:26:28.967Z,99226.22
2022-09-23T23:29:19.081Z,99222.53
2022-09-23T23:32:07.737Z,99220.44
2022-09-23T23:34:55.325Z,99224.38
2022-09-23T23:37:42.548Z,99226.50
2022-09-23T23:40:29.808Z,99221.75
2022-09-23T23:43:17.728Z,99213.63
2022-09-23T23:46:06.621Z,99216.00
2022-09-23T23:48:56.645Z,99216.00
2022-09-23T23:51:43.810Z,99216.78
2022-09-23T23:54:32.311Z,99226.22
2022-09-23T23:57:19.883Z,99216.78
